Time;durP1;ratioP1;P1;durP2;ratioP2;P2;SDS_P1;SDS_P2;PMS_P1;PMS_P2;Temp;Humidity;BMP_temperature;BMP_pressure;BME280_temperature;BME280_humidity;BME280_pressure;Samples;Min_cycle;Max_cycle;Signal;HPM_P1;HPM_P2
2021/08/29 00:01:05;;;;;;;3.90;2.17;;;20.20;69.20;;;;;;10334902;28;20034;-49
2021/08/29 00:06:06;;;;;;;3.88;2.10;;;20.20;69.30;;;;;;10335027;28;20054;-49
2021/08/29 00:11:07;;;;;;;2.90;2.22;;;20.20;69.30;;;;;;10334166;28;20027;-49
2021/08/29 00:16:08;;;;;;;2.50;1.98;;;20.20;69.30;;;;;;10332756;28;20031;-48
2021/08/29 00:21:08;;;;;;;3.08;2.10;;;20.20;69.20;;;;;;10336469;28;20058;-49
2021/08/29 00:26:09;;;;;;;2.90;2.10;;;20.20;69.20;;;;;;10333476;28;20049;-49
2021/08/29 00:31:10;;;;;;;2.63;1.83;;;20.20;69.30;;;;;;10333600;28;20069;-48
2021/08/29 00:36:10;;;;;;;3.75;2.35;;;20.20;69.30;;;;;;10333360;28;20113;-48
2021/08/29 00:41:11;;;;;;;2.85;1.85;;;20.20;69.30;;;;;;10333460;28;20039;-48
2021/08/29 00:46:12;;;;;;;3.30;1.90;;;20.20;69.40;;;;;;10331833;28;20027;-49
2021/08/29 00:51:14;;;;;;;2.88;1.83;;;20.20;69.30;;;;;;10332758;28;20121;-49
2021/08/29 00:56:17;;;;;;;3.13;1.80;;;20.20;69.40;;;;;;10332957;28;20034;-49
2021/08/29 01:01:46;;;;;;;2.97;1.90;;;20.10;69.40;;;;;;10344643;28;20022;-53
2021/08/29 01:07:06;;;;;;;3.33;1.63;;;20.20;69.00;;;;;;10325798;28;20054;-49
2021/08/29 01:12:08;;;;;;;3.45;1.88;;;20.20;69.10;;;;;;10331056;28;20487;-49
2021/08/29 01:17:10;;;;;;;2.92;1.80;;;20.20;69.10;;;;;;10332846;28;20103;-49
2021/08/29 01:22:11;;;;;;;2.90;1.80;;;20.10;69.10;;;;;;10332800;28;20057;-52
2021/08/29 01:27:32;;;;;;;2.15;1.67;;;20.10;69.20;;;;;;10331810;28;20061;-50
2021/08/29 01:32:33;;;;;;;3.33;1.95;;;20.10;69.20;;;;;;10331413;28;20040;-51
2021/08/29 01:37:35;;;;;;;3.20;2.33;;;20.10;69.30;;;;;;10336927;28;20037;-51
2021/08/29 01:42:37;;;;;;;2.67;1.60;;;20.10;69.30;;;;;;10354261;28;20488;-50
2021/08/29 01:47:37;;;;;;;3.22;2.20;;;20.10;69.30;;;;;;10379061;28;20493;-49
2021/08/29 01:52:38;;;;;;;1.95;1.70;;;20.10;69.10;;;;;;10380076;28;20041;-49
2021/08/29 01:57:38;;;;;;;4.03;2.47;;;20.10;69.10;;;;;;10378837;28;20033;-49
2021/08/29 02:02:41;;;;;;;3.13;2.10;;;20.10;69.10;;;;;;10379670;28;20069;-48
2021/08/29 02:07:47;;;;;;;2.88;1.85;;;20.10;69.10;;;;;;10380334;28;20132;-50
2021/08/29 02:13:03;;;;;;;3.55;2.15;;;20.10;69.20;;;;;;10378342;28;20025;-49
2021/08/29 02:18:08;;;;;;;2.92;1.95;;;20.10;69.20;;;;;;10368870;28;20105;-49
2021/08/29 02:23:09;;;;;;;3.50;2.33;;;20.20;69.20;;;;;;10338599;28;20034;-48
2021/08/29 02:28:11;;;;;;;3.40;2.00;;;20.10;69.20;;;;;;10338118;28;20033;-49
2021/08/29 02:33:12;;;;;;;2.25;1.83;;;20.10;69.30;;;;;;10362952;28;20027;-49
2021/08/29 02:38:13;;;;;;;3.30;2.25;;;20.10;69.20;;;;;;10336494;28;20054;-49
2021/08/29 02:43:15;;;;;;;5.57;2.63;;;20.10;69.10;;;;;;10336327;28;20081;-49
2021/08/29 02:48:17;;;;;;;4.45;2.10;;;20.10;69.10;;;;;;10336280;28;20022;-48
2021/08/29 02:53:18;;;;;;;3.08;2.00;;;20.10;69.20;;;;;;10337323;28;20037;-53
2021/08/29 02:58:19;;;;;;;3.75;2.15;;;20.10;69.20;;;;;;10337497;28;20034;-49
2021/08/29 03:03:20;;;;;;;3.70;2.08;;;20.10;69.10;;;;;;10335636;28;20030;-49
2021/08/29 03:08:21;;;;;;;5.13;2.50;;;20.10;69.20;;;;;;10336726;28;20037;-49
2021/08/29 03:13:22;;;;;;;2.78;2.20;;;20.10;69.20;;;;;;10336660;28;20025;-49
2021/08/29 03:18:23;;;;;;;4.18;2.28;;;20.10;69.20;;;;;;10338402;28;20034;-49
2021/08/29 03:23:24;;;;;;;4.22;2.08;;;20.00;69.10;;;;;;10336671;28;20480;-49
2021/08/29 03:28:25;;;;;;;3.45;2.17;;;20.10;69.10;;;;;;10335890;28;20431;-49
2021/08/29 03:33:26;;;;;;;3.28;2.10;;;20.00;69.10;;;;;;10335811;28;20034;-50
2021/08/29 03:38:29;;;;;;;3.35;2.50;;;20.00;69.20;;;;;;10335439;28;20372;-48
2021/08/29 03:43:31;;;;;;;3.38;2.13;;;20.10;69.30;;;;;;10333867;28;20056;-48
2021/08/29 03:48:32;;;;;;;2.95;2.05;;;20.10;69.20;;;;;;10335496;28;20487;-49
2021/08/29 03:53:34;;;;;;;3.47;2.08;;;20.00;69.20;;;;;;10334942;28;20065;-50
2021/08/29 03:58:38;;;;;;;3.95;2.10;;;20.00;69.20;;;;;;10333139;28;20031;-49
2021/08/29 04:03:39;;;;;;;2.90;2.10;;;20.10;69.30;;;;;;10317723;28;20379;-49
2021/08/29 04:08:48;;;;;;;3.10;2.10;;;20.00;69.10;;;;;;10334349;28;20034;-50
2021/08/29 04:13:51;;;;;;;2.75;2.13;;;20.00;69.10;;;;;;10332937;28;20118;-49
2021/08/29 04:18:53;;;;;;;3.80;2.22;;;20.00;69.20;;;;;;10335051;28;20085;-49
2021/08/29 04:23:54;;;;;;;3.88;2.45;;;20.00;69.20;;;;;;10333853;28;20029;-50
2021/08/29 04:28:55;;;;;;;5.90;2.70;;;20.00;69.20;;;;;;10316159;28;20026;-49
2021/08/29 04:34:00;;;;;;;3.70;2.15;;;20.00;69.20;;;;;;10333957;28;20070;-49
2021/08/29 04:39:08;;;;;;;3.30;2.50;;;20.00;69.20;;;;;;10333101;28;20058;-49
2021/08/29 04:44:11;;;;;;;4.53;2.42;;;20.00;69.20;;;;;;10333304;28;20057;-50
2021/08/29 04:49:11;;;;;;;4.25;2.30;;;20.00;69.20;;;;;;10332535;28;20118;-51
2021/08/29 04:54:12;;;;;;;3.38;2.50;;;20.00;69.20;;;;;;10331160;28;20037;-51
2021/08/29 04:59:13;;;;;;;3.42;2.17;;;20.00;69.20;;;;;;10332097;28;20066;-50
2021/08/29 05:04:13;;;;;;;2.90;2.22;;;20.00;69.20;;;;;;10332912;28;20061;-49
2021/08/29 05:09:14;;;;;;;4.70;2.55;;;20.00;69.20;;;;;;10333564;28;20446;-49
2021/08/29 05:14:15;;;;;;;3.15;1.95;;;20.00;69.20;;;;;;10332276;28;20092;-49
2021/08/29 05:19:15;;;;;;;3.85;2.10;;;20.00;69.30;;;;;;10335171;28;20426;-49
2021/08/29 05:24:16;;;;;;;3.83;2.67;;;19.90;69.20;;;;;;10332587;28;20076;-51
2021/08/29 05:29:17;;;;;;;5.95;2.30;;;19.90;69.20;;;;;;10332603;28;20054;-49
2021/08/29 05:34:18;;;;;;;3.30;2.30;;;20.00;69.20;;;;;;10344587;28;20034;-48
2021/08/29 05:39:18;;;;;;;3.83;2.38;;;19.90;69.10;;;;;;10332207;28;20117;-50
2021/08/29 05:44:19;;;;;;;4.10;2.70;;;20.00;69.20;;;;;;10332201;28;20551;-49
2021/08/29 05:49:19;;;;;;;3.72;2.30;;;20.00;69.20;;;;;;10332141;28;20487;-48
2021/08/29 05:54:20;;;;;;;3.63;2.33;;;19.90;69.10;;;;;;10332331;28;20042;-49
2021/08/29 05:59:21;;;;;;;3.60;2.63;;;19.90;69.10;;;;;;10332001;28;20030;-50
2021/08/29 06:04:22;;;;;;;3.42;2.35;;;19.90;69.20;;;;;;10331867;28;20058;-51
2021/08/29 06:09:22;;;;;;;3.55;2.28;;;19.90;69.10;;;;;;10331844;28;20109;-49
2021/08/29 06:14:23;;;;;;;4.40;2.60;;;19.90;69.20;;;;;;10331516;28;20030;-48
2021/08/29 06:19:24;;;;;;;4.03;2.15;;;19.90;69.20;;;;;;10332214;28;20034;-49
2021/08/29 06:24:24;;;;;;;3.42;2.40;;;19.90;69.20;;;;;;10337096;28;20031;-49
2021/08/29 06:29:25;;;;;;;4.00;2.55;;;19.90;69.20;;;;;;10338776;28;20112;-50
2021/08/29 06:34:26;;;;;;;3.25;1.67;;;19.90;69.20;;;;;;10338215;28;20062;-48
2021/08/29 06:39:27;;;;;;;4.10;2.60;;;19.90;69.20;;;;;;10338110;28;20471;-51
2021/08/29 06:44:28;;;;;;;2.70;1.90;;;19.90;69.20;;;;;;10337982;28;20082;-49
2021/08/29 06:49:29;;;;;;;3.55;1.80;;;19.90;69.20;;;;;;10338116;28;20121;-48
2021/08/29 06:54:30;;;;;;;4.97;2.72;;;19.90;69.20;;;;;;10337796;28;20097;-51
2021/08/29 06:59:30;;;;;;;4.38;2.70;;;19.90;69.30;;;;;;10336388;28;20042;-50
2021/08/29 07:04:31;;;;;;;4.20;2.53;;;19.90;69.30;;;;;;10337532;28;20097;-51
2021/08/29 07:09:32;;;;;;;3.47;2.00;;;19.90;69.20;;;;;;10337283;28;20510;-49
2021/08/29 07:14:32;;;;;;;3.42;2.38;;;19.90;69.30;;;;;;10336093;28;20105;-51
2021/08/29 07:19:33;;;;;;;3.45;2.28;;;19.90;69.30;;;;;;10336860;28;20069;-49
2021/08/29 07:24:34;;;;;;;4.15;2.40;;;19.90;69.30;;;;;;10336769;28;20030;-52
2021/08/29 07:29:35;;;;;;;4.18;1.98;;;19.90;69.30;;;;;;10336868;28;20122;-49
2021/08/29 07:34:37;;;;;;;3.67;2.15;;;19.90;69.30;;;;;;10335540;28;20108;-52
2021/08/29 07:39:37;;;;;;;3.40;2.08;;;19.90;69.30;;;;;;10336445;28;20030;-50
2021/08/29 07:44:38;;;;;;;4.20;2.30;;;19.90;69.30;;;;;;10335743;28;20038;-49
2021/08/29 07:49:39;;;;;;;4.13;2.53;;;19.90;69.30;;;;;;10335687;28;20073;-49
2021/08/29 07:54:39;;;;;;;4.78;2.25;;;19.90;69.30;;;;;;10335652;28;20495;-50
2021/08/29 07:59:40;;;;;;;3.88;2.03;;;19.90;69.40;;;;;;10335228;28;20106;-53
2021/08/29 08:04:41;;;;;;;3.90;2.58;;;19.90;69.40;;;;;;10335267;28;20165;-49
2021/08/29 08:09:41;;;;;;;4.13;2.80;;;19.90;69.40;;;;;;10335111;28;20030;-50
2021/08/29 08:14:42;;;;;;;3.95;2.30;;;19.90;69.40;;;;;;10335204;28;20061;-52
2021/08/29 08:19:43;;;;;;;4.05;2.25;;;19.90;69.50;;;;;;10337265;28;20026;-52
2021/08/29 08:24:44;;;;;;;4.45;2.42;;;19.90;69.40;;;;;;10334288;28;20435;-49
2021/08/29 08:29:45;;;;;;;4.10;2.45;;;19.90;69.40;;;;;;10334168;28;20414;-49
2021/08/29 08:34:45;;;;;;;3.05;2.13;;;19.90;69.40;;;;;;10334173;28;20140;-51
2021/08/29 08:39:46;;;;;;;3.42;1.98;;;19.90;69.50;;;;;;10333633;28;20121;-49
2021/08/29 08:44:47;;;;;;;4.65;2.20;;;19.90;69.50;;;;;;10333443;28;20521;-49
2021/08/29 08:49:52;;;;;;;3.78;2.10;;;19.90;69.70;;;;;;10333687;28;20061;-50
2021/08/29 08:54:56;;;;;;;5.07;2.45;;;19.90;69.60;;;;;;10333451;28;20026;-49
2021/08/29 08:59:57;;;;;;;5.57;2.25;;;19.90;69.60;;;;;;10333041;28;20477;-50
2021/08/29 09:04:57;;;;;;;3.83;2.28;;;19.90;69.60;;;;;;10333191;28;20092;-50
2021/08/29 09:09:58;;;;;;;4.00;1.92;;;19.90;69.70;;;;;;10333013;28;20054;-49
2021/08/29 09:14:58;;;;;;;4.80;2.60;;;19.90;69.70;;;;;;10332613;28;20467;-49
2021/08/29 09:20:29;;;;;;;4.07;2.10;;;19.90;69.60;;;;;;10344112;28;20026;-49
2021/08/29 09:25:35;;;;;;;3.88;1.95;;;19.90;69.50;;;;;;10358920;28;20038;-48
2021/08/29 09:30:39;;;;;;;4.60;2.35;;;19.90;69.70;;;;;;10373292;28;20032;-52
2021/08/29 09:35:40;;;;;;;2.38;1.95;;;19.90;69.80;;;;;;10373178;28;20057;-50
2021/08/29 09:40:40;;;;;;;4.43;2.47;;;19.90;69.80;;;;;;10372860;28;20109;-52
2021/08/29 09:45:44;;;;;;;3.17;2.58;;;19.90;69.70;;;;;;10372943;28;20513;-48
2021/08/29 09:50:46;;;;;;;3.38;2.13;;;19.90;69.80;;;;;;10371864;28;20482;-49
2021/08/29 09:55:48;;;;;;;4.13;2.20;;;19.90;69.80;;;;;;10371830;28;20033;-52
2021/08/29 10:01:12;;;;;;;3.72;1.90;;;19.90;69.80;;;;;;10380550;28;20037;-52
2021/08/29 10:06:16;;;;;;;3.65;2.22;;;19.90;69.70;;;;;;10380371;28;20508;-49
2021/08/29 10:11:20;;;;;;;4.75;2.25;;;19.90;69.80;;;;;;10380113;28;20486;-49
2021/08/29 10:16:23;;;;;;;3.40;1.70;;;19.80;69.80;;;;;;10380522;28;20030;-51
2021/08/29 10:21:27;;;;;;;3.15;1.70;;;19.80;70.00;;;;;;10343653;28;20023;-50
2021/08/29 10:26:30;;;;;;;3.80;2.05;;;19.90;70.00;;;;;;10337736;28;20029;-48
2021/08/29 10:31:46;;;;;;;3.83;2.15;;;19.80;69.90;;;;;;10337843;28;20022;-53
2021/08/29 10:36:47;;;;;;;3.22;1.83;;;19.90;69.90;;;;;;10337601;28;20437;-50
2021/08/29 10:41:48;;;;;;;3.45;2.20;;;19.80;70.00;;;;;;10336918;28;20137;-49
2021/08/29 10:46:49;;;;;;;3.28;1.90;;;19.80;70.00;;;;;;10337265;28;20038;-50
2021/08/29 10:51:52;;;;;;;2.72;1.70;;;19.80;70.00;;;;;;10337952;28;20109;-50
2021/08/29 10:56:52;;;;;;;2.90;2.00;;;19.80;70.00;;;;;;10336912;28;20057;-52
2021/08/29 11:02:10;;;;;;;3.47;2.00;;;19.80;70.00;;;;;;10336382;28;20041;-50
2021/08/29 11:07:11;;;;;;;4.47;1.90;;;19.90;70.10;;;;;;10337198;28;20069;-53
2021/08/29 11:12:18;;;;;;;3.53;1.58;;;19.80;70.10;;;;;;10336619;28;20089;-50
2021/08/29 11:17:24;;;;;;;3.88;2.03;;;19.90;70.20;;;;;;10339767;28;20033;-50
2021/08/29 11:22:26;;;;;;;3.17;1.63;;;19.90;70.20;;;;;;10336839;28;20495;-49
2021/08/29 11:32:56;;;;;;;4.05;1.98;;;19.90;70.20;;;;;;10336718;28;20034;-50
2021/08/29 11:38:17;;;;;;;3.35;1.60;;;19.80;70.30;;;;;;10336351;28;20027;-50
2021/08/29 11:43:28;;;;;;;4.47;2.25;;;19.90;70.30;;;;;;10335561;28;20085;-48
2021/08/29 11:48:32;;;;;;;3.25;2.13;;;19.80;70.40;;;;;;10335821;28;20037;-51
2021/08/29 11:53:47;;;;;;;4.22;1.67;;;19.80;70.50;;;;;;10335996;28;20360;-53
2021/08/29 11:58:49;;;;;;;3.33;1.92;;;19.90;70.50;;;;;;10335268;28;20038;-52
2021/08/29 12:03:58;;;;;;;3.80;1.85;;;19.80;70.50;;;;;;10335284;28;20061;-53
2021/08/29 12:09:22;;;;;;;2.78;1.80;;;19.90;70.50;;;;;;10335266;28;20558;-50
2021/08/29 12:14:28;;;;;;;4.15;2.10;;;19.80;71.00;;;;;;10364533;28;20038;-52
2021/08/29 12:19:34;;;;;;;2.38;1.80;;;19.80;70.50;;;;;;10354081;28;20030;-51
2021/08/29 12:24:38;;;;;;;2.35;1.60;;;19.80;70.50;;;;;;10333353;28;20034;-51
2021/08/29 12:29:59;;;;;;;3.90;1.63;;;19.90;70.50;;;;;;10356343;28;20029;-51
2021/08/29 12:35:07;;;;;;;5.07;1.70;;;19.80;71.10;;;;;;10374919;28;20560;-51
2021/08/29 12:40:13;;;;;;;3.25;2.05;;;19.80;70.80;;;;;;10374463;28;20113;-52
2021/08/29 12:45:16;;;;;;;2.80;1.70;;;19.90;70.80;;;;;;10374213;28;20253;-51
2021/08/29 12:50:19;;;;;;;3.10;1.77;;;19.90;70.90;;;;;;10374078;28;20032;-53
2021/08/29 12:55:23;;;;;;;3.70;2.10;;;19.90;70.90;;;;;;10374388;28;20076;-49
2021/08/29 13:00:43;;;;;;;4.68;1.70;;;19.90;71.00;;;;;;10374114;28;20117;-48
2021/08/29 13:05:46;;;;;;;4.07;1.70;;;19.90;70.80;;;;;;10372987;28;20030;-51
2021/08/29 13:11:05;;;;;;;3.03;1.85;;;19.90;71.00;;;;;;10373558;28;20035;-52
2021/08/29 13:16:10;;;;;;;2.93;1.80;;;19.90;70.90;;;;;;10372404;28;20037;-49
2021/08/29 13:21:36;;;;;;;2.58;1.35;;;19.90;71.00;;;;;;10339443;28;20073;-51
2021/08/29 13:26:37;;;;;;;2.75;1.70;;;19.90;70.90;;;;;;10332543;28;20022;-53
2021/08/29 13:31:37;;;;;;;3.47;1.95;;;19.80;70.90;;;;;;10333016;28;20046;-53
2021/08/29 13:36:47;;;;;;;3.80;2.03;;;19.80;71.00;;;;;;10340827;28;20133;-49
2021/08/29 13:42:05;;;;;;;3.22;1.90;;;19.90;70.90;;;;;;10368667;28;20057;-50
2021/08/29 13:47:06;;;;;;;3.55;2.30;;;19.80;70.90;;;;;;10380455;28;20026;-50
2021/08/29 13:52:07;;;;;;;3.08;2.15;;;19.80;71.20;;;;;;10380767;28;20087;-50
2021/08/29 13:57:07;;;;;;;2.55;1.70;;;19.90;71.20;;;;;;10380577;28;20029;-49
2021/08/29 14:02:08;;;;;;;2.63;1.60;;;19.80;71.20;;;;;;10358131;28;20065;-49
2021/08/29 14:07:09;;;;;;;3.53;1.90;;;19.80;71.10;;;;;;10339599;28;20037;-53
2021/08/29 14:12:09;;;;;;;2.67;1.83;;;19.90;71.30;;;;;;10339590;28;20065;-52
2021/08/29 14:17:10;;;;;;;2.63;1.63;;;19.90;71.30;;;;;;10341604;28;20403;-51
2021/08/29 14:22:11;;;;;;;2.83;1.77;;;19.90;71.20;;;;;;10339285;28;20027;-50
2021/08/29 14:27:11;;;;;;;2.83;1.80;;;19.90;71.40;;;;;;10339036;28;20026;-52
2021/08/29 14:32:12;;;;;;;3.38;1.80;;;19.90;71.40;;;;;;10350811;28;20073;-51
2021/08/29 14:37:13;;;;;;;2.45;1.50;;;19.90;71.40;;;;;;10354668;28;20040;-51
2021/08/29 14:42:14;;;;;;;3.90;1.98;;;19.90;71.50;;;;;;10365587;28;20038;-50
2021/08/29 14:47:15;;;;;;;12.70;2.92;;;19.90;71.70;;;;;;10366126;28;20438;-49
2021/08/29 14:52:16;;;;;;;10.27;2.85;;;19.90;71.70;;;;;;10360699;28;20030;-53
2021/08/29 14:57:17;;;;;;;24.52;3.75;;;19.90;72.70;;;;;;10378363;28;20371;-48
2021/08/29 15:02:17;;;;;;;16.45;3.28;;;19.90;72.50;;;;;;10338141;28;20034;-52
2021/08/29 15:07:18;;;;;;;12.27;3.22;;;19.90;72.70;;;;;;10338076;28;20062;-52
2021/08/29 15:12:19;;;;;;;11.02;2.85;;;19.90;72.60;;;;;;10337806;28;20371;-50
2021/08/29 15:17:19;;;;;;;16.90;3.00;;;19.90;72.70;;;;;;10373036;28;20022;-47
2021/08/29 15:22:20;;;;;;;20.00;3.28;;;19.90;72.90;;;;;;10354288;28;20073;-45
2021/08/29 15:27:21;;;;;;;18.05;4.28;;;20.00;73.00;;;;;;10345414;28;20022;-48
2021/08/29 15:32:21;;;;;;;13.75;3.67;;;20.00;72.90;;;;;;10345239;28;20776;-55
2021/08/29 15:37:22;;;;;;;20.50;3.75;;;19.90;74.70;;;;;;10339178;28;20126;-55
2021/08/29 15:42:23;;;;;;;20.70;5.35;;;19.80;75.00;;;;;;10358602;28;20089;-54
2021/08/29 15:47:23;;;;;;;24.88;5.07;;;19.80;75.80;;;;;;10370296;28;20076;-57
2021/08/29 15:52:25;;;;;;;20.85;4.53;;;19.70;75.70;;;;;;10351512;28;20102;-54
2021/08/29 15:57:25;;;;;;;17.48;4.90;;;19.80;76.20;;;;;;10347129;28;20038;-54
2021/08/29 16:02:26;;;;;;;15.70;4.50;;;19.70;76.20;;;;;;10362340;28;20030;-56
2021/08/29 16:07:27;;;;;;;22.25;5.38;;;19.70;75.70;;;;;;10351750;28;20022;-55
2021/08/29 16:12:27;;;;;;;19.50;5.72;;;19.80;76.10;;;;;;10356539;28;20038;-54
2021/08/29 16:17:28;;;;;;;22.33;4.85;;;19.70;76.50;;;;;;10349099;28;20030;-54
2021/08/29 16:22:29;;;;;;;244.88;102.20;;;19.80;76.50;;;;;;10359202;28;20037;-54
2021/08/29 16:27:29;;;;;;;46.30;13.95;;;19.90;78.00;;;;;;10334194;28;20018;-54
2021/08/29 16:32:30;;;;;;;31.90;12.88;;;19.90;77.40;;;;;;10351607;28;20344;-51
2021/08/29 16:37:31;;;;;;;25.20;11.00;;;19.90;76.50;;;;;;10334239;28;20042;-51
2021/08/29 16:42:32;;;;;;;32.45;9.55;;;19.90;76.90;;;;;;10341588;28;20478;-54
2021/08/29 16:47:33;;;;;;;24.02;8.68;;;20.00;78.20;;;;;;10338826;28;20097;-55
2021/08/29 16:52:33;;;;;;;21.77;8.73;;;20.00;77.90;;;;;;10333997;28;20030;-54
2021/08/29 16:57:34;;;;;;;22.48;8.45;;;20.10;77.60;;;;;;10333602;28;20121;-54
2021/08/29 17:02:35;;;;;;;31.48;8.50;;;20.10;77.30;;;;;;10358714;28;20113;-55
2021/08/29 17:07:36;;;;;;;26.35;7.97;;;20.10;77.10;;;;;;10342395;28;20521;-54
2021/08/29 17:12:37;;;;;;;19.90;7.60;;;20.10;76.90;;;;;;10358476;28;20064;-54
2021/08/29 17:17:37;;;;;;;24.45;8.18;;;20.10;76.80;;;;;;10368253;28;20105;-55
2021/08/29 17:22:38;;;;;;;21.40;7.13;;;20.10;76.80;;;;;;10332784;28;20109;-55
2021/08/29 17:27:40;;;;;;;16.70;7.28;;;20.10;76.50;;;;;;10333164;28;20038;-55
2021/08/29 17:32:40;;;;;;;17.52;6.55;;;20.00;76.30;;;;;;10336715;28;20027;-54
2021/08/29 17:37:41;;;;;;;13.60;6.35;;;20.00;76.20;;;;;;10360483;28;20419;-55
2021/08/29 17:42:43;;;;;;;11.38;6.13;;;20.00;76.10;;;;;;10342219;28;20054;-55
2021/08/29 17:47:43;;;;;;;16.88;6.57;;;20.00;76.00;;;;;;10335523;28;20375;-55
2021/08/29 17:52:44;;;;;;;20.55;6.45;;;20.00;75.90;;;;;;10332605;28;20109;-55
2021/08/29 17:57:45;;;;;;;17.13;6.53;;;20.00;75.80;;;;;;10331425;28;20042;-55
2021/08/29 18:02:46;;;;;;;12.63;5.35;;;20.00;75.70;;;;;;10332139;28;20114;-56
2021/08/29 18:07:47;;;;;;;15.50;5.72;;;20.00;76.00;;;;;;10332328;28;20033;-55
2021/08/29 18:12:50;;;;;;;14.50;5.57;;;20.00;76.10;;;;;;10332126;28;20487;-55
2021/08/29 18:17:52;;;;;;;12.30;5.72;;;20.00;76.10;;;;;;10347271;28;20117;-55
2021/08/29 18:22:53;;;;;;;15.05;5.72;;;20.00;76.10;;;;;;10351922;28;20105;-55
2021/08/29 18:27:53;;;;;;;12.77;4.90;;;20.00;75.40;;;;;;10344759;28;20025;-55
2021/08/29 18:32:54;;;;;;;13.85;5.82;;;20.00;75.40;;;;;;10362311;28;20109;-56
2021/08/29 18:37:55;;;;;;;13.90;5.75;;;20.00;75.50;;;;;;10362058;28;20049;-55
2021/08/29 18:42:56;;;;;;;13.50;5.80;;;20.00;75.50;;;;;;10351525;28;20038;-55
2021/08/29 18:47:56;;;;;;;9.90;4.70;;;20.00;75.50;;;;;;10348953;28;20113;-55
2021/08/29 18:52:57;;;;;;;11.80;5.28;;;20.00;75.50;;;;;;10344996;28;20158;-54
2021/08/29 18:57:58;;;;;;;9.35;4.65;;;20.00;75.50;;;;;;10337363;28;20030;-55
2021/08/29 19:02:59;;;;;;;10.35;5.55;;;20.10;75.50;;;;;;10337465;28;20059;-55
2021/08/29 19:08:00;;;;;;;10.63;5.03;;;20.10;75.50;;;;;;10337484;28;20105;-54
2021/08/29 19:13:00;;;;;;;11.77;4.93;;;20.00;75.40;;;;;;10337723;28;20032;-56
2021/08/29 19:18:01;;;;;;;12.10;4.75;;;20.10;75.60;;;;;;10342895;28;20026;-56
2021/08/29 19:23:02;;;;;;;14.82;4.50;;;20.10;75.50;;;;;;10354914;28;20125;-55
2021/08/29 19:28:03;;;;;;;8.27;3.95;;;20.10;75.50;;;;;;10349058;28;20023;-53
2021/08/29 19:33:04;;;;;;;9.82;5.22;;;20.10;75.50;;;;;;10356345;28;20034;-55
2021/08/29 19:38:05;;;;;;;11.25;4.35;;;20.10;75.50;;;;;;10350859;28;20429;-58
2021/08/29 19:43:05;;;;;;;12.73;4.20;;;20.10;75.50;;;;;;10348033;28;20516;-55
2021/08/29 19:48:06;;;;;;;12.23;4.97;;;20.10;75.30;;;;;;10356906;28;20036;-56
2021/08/29 19:53:07;;;;;;;9.25;4.85;;;20.10;75.20;;;;;;10360275;28;20065;-55
2021/08/29 19:58:07;;;;;;;9.70;4.25;;;20.00;75.00;;;;;;10336001;28;20411;-55
2021/08/29 20:03:08;;;;;;;7.80;3.70;;;20.00;75.00;;;;;;10334860;28;20503;-55
2021/08/29 20:08:09;;;;;;;7.60;4.03;;;20.10;75.00;;;;;;10334183;28;20145;-55
2021/08/29 20:13:10;;;;;;;7.43;4.80;;;20.10;74.90;;;;;;10335573;28;20043;-55
2021/08/29 20:18:10;;;;;;;7.75;4.65;;;20.00;74.80;;;;;;10337600;28;20048;-55
2021/08/29 20:23:11;;;;;;;8.35;4.45;;;20.00;74.70;;;;;;10334686;28;20038;-55
2021/08/29 20:28:12;;;;;;;9.48;4.35;;;20.00;74.60;;;;;;10346541;28;20553;-55
2021/08/29 20:33:12;;;;;;;8.88;4.63;;;20.00;74.60;;;;;;10334564;28;20038;-53
2021/08/29 20:38:13;;;;;;;8.57;4.60;;;20.00;75.20;;;;;;10334587;28;20117;-55
2021/08/29 20:43:14;;;;;;;6.13;4.05;;;20.00;74.40;;;;;;10333861;28;20046;-55
2021/08/29 20:48:14;;;;;;;7.32;4.70;;;20.00;74.50;;;;;;10335489;28;20109;-55
2021/08/29 20:53:15;;;;;;;6.72;4.50;;;20.00;74.40;;;;;;10345649;28;20033;-55
2021/08/29 20:58:16;;;;;;;7.32;4.07;;;19.90;74.30;;;;;;10333738;28;20065;-55
2021/08/29 21:03:16;;;;;;;9.10;4.40;;;20.00;74.40;;;;;;10333384;28;20058;-55
2021/08/29 21:08:17;;;;;;;8.77;5.07;;;20.00;74.50;;;;;;10333585;28;20106;-55
2021/08/29 21:13:18;;;;;;;7.90;4.18;;;20.00;74.40;;;;;;10332179;28;20026;-54
2021/08/29 21:18:19;;;;;;;8.70;4.43;;;20.00;74.40;;;;;;10336083;28;20069;-55
2021/08/29 21:23:19;;;;;;;8.43;4.20;;;20.00;74.30;;;;;;10332995;28;20023;-55
2021/08/29 21:28:20;;;;;;;5.80;3.58;;;20.00;74.30;;;;;;10332910;28;20088;-55
2021/08/29 21:33:21;;;;;;;7.90;4.53;;;20.00;74.30;;;;;;10332787;28;20053;-55
2021/08/29 21:38:22;;;;;;;10.15;4.55;;;19.90;74.20;;;;;;10332852;28;20027;-55
2021/08/29 21:43:23;;;;;;;6.18;3.63;;;20.00;74.20;;;;;;10332351;28;20050;-55
2021/08/29 21:48:25;;;;;;;6.45;4.28;;;19.90;74.10;;;;;;10332756;28;20066;-55
2021/08/29 21:53:26;;;;;;;6.53;4.05;;;19.90;74.10;;;;;;10335299;28;20034;-55
2021/08/29 21:58:26;;;;;;;7.30;4.30;;;20.00;74.10;;;;;;10340450;28;20054;-55
2021/08/29 22:03:27;;;;;;;6.38;4.45;;;19.90;74.00;;;;;;10340322;28;20042;-54
2021/08/29 22:08:28;;;;;;;6.15;3.80;;;19.90;74.00;;;;;;10339092;28;20027;-55
2021/08/29 22:13:28;;;;;;;6.47;4.05;;;20.00;74.00;;;;;;10340014;28;20037;-55
2021/08/29 22:18:29;;;;;;;7.53;4.03;;;19.90;74.00;;;;;;10341408;28;20034;-55
2021/08/29 22:23:30;;;;;;;8.48;4.18;;;19.90;74.10;;;;;;10352518;28;20134;-55
2021/08/29 22:28:30;;;;;;;6.28;3.72;;;19.90;74.00;;;;;;10365852;28;20470;-55
2021/08/29 22:33:31;;;;;;;5.10;3.60;;;19.90;74.00;;;;;;10379605;28;20053;-55
2021/08/29 22:38:32;;;;;;;5.90;3.83;;;19.90;73.90;;;;;;10379803;28;20054;-55
2021/08/29 22:43:33;;;;;;;6.88;3.97;;;19.90;73.90;;;;;;10378135;28;20053;-55
2021/08/29 22:48:33;;;;;;;5.80;3.97;;;19.90;74.50;;;;;;10379323;28;20025;-55
2021/08/29 22:53:34;;;;;;;5.20;4.00;;;19.90;73.90;;;;;;10379298;28;20398;-55
2021/08/29 22:58:35;;;;;;;7.28;4.88;;;19.90;73.80;;;;;;10345988;28;20030;-55
2021/08/29 23:03:35;;;;;;;6.20;4.30;;;19.90;73.80;;;;;;10349890;28;20069;-55
2021/08/29 23:08:36;;;;;;;7.95;4.38;;;19.90;73.80;;;;;;10337832;28;20368;-55
2021/08/29 23:13:36;;;;;;;8.18;4.82;;;19.90;73.80;;;;;;10337956;28;20482;-55
2021/08/29 23:18:37;;;;;;;6.53;4.30;;;19.90;73.80;;;;;;10340158;28;20062;-55
2021/08/29 23:23:38;;;;;;;5.97;4.63;;;19.90;73.80;;;;;;10337121;28;20038;-55
2021/08/29 23:28:38;;;;;;;6.00;4.05;;;19.90;73.80;;;;;;10336879;28;20112;-55
2021/08/29 23:33:39;;;;;;;5.72;4.53;;;19.90;74.00;;;;;;10335895;28;20030;-55
2021/08/29 23:38:40;;;;;;;5.57;3.90;;;19.90;74.00;;;;;;10336607;28;20106;-55
2021/08/29 23:43:40;;;;;;;8.85;4.90;;;19.90;74.00;;;;;;10336274;28;20050;-55
2021/08/29 23:48:41;;;;;;;6.43;4.40;;;19.90;73.90;;;;;;10334883;28;20125;-55
2021/08/29 23:53:42;;;;;;;7.85;4.70;;;19.90;73.80;;;;;;10336217;28;20061;-55
2021/08/29 23:58:42;;;;;;;5.25;4.40;;;19.90;73.70;;;;;;10336200;28;20495;-55
